sensor_id;sensor_type;location;lat;lon;timestamp;P1;durP1;ratioP1;P2;durP2;ratioP2
4272;SDS011;63887;53.656;9.810;2023-04-25T00:01:34;4.17;;;4.17;;
4272;SDS011;63887;53.656;9.810;2023-04-25T00:04:01;4.37;;;4.33;;
4272;SDS011;63887;53.656;9.810;2023-04-25T00:06:28;5.10;;;4.90;;
4272;SDS011;63887;53.656;9.810;2023-04-25T00:08:56;4.87;;;4.50;;
4272;SDS011;63887;53.656;9.810;2023-04-25T00:11:22;4.20;;;4.20;;
4272;SDS011;63887;53.656;9.810;2023-04-25T00:13:49;4.67;;;4.57;;
4272;SDS011;63887;53.656;9.810;2023-04-25T00:16:16;4.20;;;4.20;;
4272;SDS011;63887;53.656;9.810;2023-04-25T00:18:43;4.30;;;4.20;;
4272;SDS011;63887;53.656;9.810;2023-04-25T00:21:11;4.57;;;4.40;;
4272;SDS011;63887;53.656;9.810;2023-04-25T00:23:37;4.37;;;4.37;;
4272;SDS011;63887;53.656;9.810;2023-04-25T00:26:05;4.70;;;4.60;;
4272;SDS011;63887;53.656;9.810;2023-04-25T00:28:32;4.50;;;4.50;;
4272;SDS011;63887;53.656;9.810;2023-04-25T00:30:59;5.10;;;4.90;;
4272;SDS011;63887;53.656;9.810;2023-04-25T00:33:25;4.20;;;4.20;;
4272;SDS011;63887;53.656;9.810;2023-04-25T00:35:51;4.60;;;4.50;;
4272;SDS011;63887;53.656;9.810;2023-04-25T00:38:18;4.30;;;4.30;;
4272;SDS011;63887;53.656;9.810;2023-04-25T00:40:44;4.10;;;4.10;;
4272;SDS011;63887;53.656;9.810;2023-04-25T00:43:12;4.03;;;4.03;;
4272;SDS011;63887;53.656;9.810;2023-04-25T00:45:39;4.80;;;4.70;;
4272;SDS011;63887;53.656;9.810;2023-04-25T00:48:06;4.77;;;4.77;;
4272;SDS011;63887;53.656;9.810;2023-04-25T00:50:32;6.03;;;5.20;;
4272;SDS011;63887;53.656;9.810;2023-04-25T00:52:59;3.73;;;3.73;;
4272;SDS011;63887;53.656;9.810;2023-04-25T00:55:26;4.17;;;4.17;;
4272;SDS011;63887;53.656;9.810;2023-04-25T00:57:53;4.53;;;4.43;;
4272;SDS011;63887;53.656;9.810;2023-04-25T01:00:21;4.37;;;4.37;;
4272;SDS011;63887;53.656;9.810;2023-04-25T01:02:48;4.83;;;4.70;;
4272;SDS011;63887;53.656;9.810;2023-04-25T01:05:14;6.90;;;6.60;;
4272;SDS011;63887;53.656;9.810;2023-04-25T01:07:42;4.60;;;4.60;;
4272;SDS011;63887;53.656;9.810;2023-04-25T01:10:08;4.53;;;4.53;;
4272;SDS011;63887;53.656;9.810;2023-04-25T01:12:35;4.13;;;4.13;;
4272;SDS011;63887;53.656;9.810;2023-04-25T01:15:02;4.03;;;4.03;;
4272;SDS011;63887;53.656;9.810;2023-04-25T01:17:30;4.50;;;4.50;;
4272;SDS011;63887;53.656;9.810;2023-04-25T01:19:57;5.70;;;5.60;;
4272;SDS011;63887;53.656;9.810;2023-04-25T01:22:25;4.27;;;4.27;;
4272;SDS011;63887;53.656;9.810;2023-04-25T01:24:51;4.00;;;4.00;;
4272;SDS011;63887;53.656;9.810;2023-04-25T01:27:18;3.93;;;3.93;;
4272;SDS011;63887;53.656;9.810;2023-04-25T01:29:45;4.73;;;4.53;;
4272;SDS011;63887;53.656;9.810;2023-04-25T01:32:12;4.27;;;4.27;;
4272;SDS011;63887;53.656;9.810;2023-04-25T01:34:40;4.07;;;4.07;;
4272;SDS011;63887;53.656;9.810;2023-04-25T01:37:06;4.60;;;4.60;;
4272;SDS011;63887;53.656;9.810;2023-04-25T01:39:34;4.17;;;4.17;;
4272;SDS011;63887;53.656;9.810;2023-04-25T01:42:00;5.40;;;5.20;;
4272;SDS011;63887;53.656;9.810;2023-04-25T01:44:27;5.40;;;5.30;;
4272;SDS011;63887;53.656;9.810;2023-04-25T01:46:53;5.00;;;4.90;;
4272;SDS011;63887;53.656;9.810;2023-04-25T01:49:20;4.03;;;4.03;;
4272;SDS011;63887;53.656;9.810;2023-04-25T01:51:47;5.17;;;5.07;;
4272;SDS011;63887;53.656;9.810;2023-04-25T01:54:13;4.33;;;4.33;;
4272;SDS011;63887;53.656;9.810;2023-04-25T01:56:41;4.40;;;4.30;;
4272;SDS011;63887;53.656;9.810;2023-04-25T01:59:07;5.00;;;4.90;;
4272;SDS011;63887;53.656;9.810;2023-04-25T02:01:34;4.40;;;4.40;;
4272;SDS011;63887;53.656;9.810;2023-04-25T02:04:01;4.70;;;4.60;;
4272;SDS011;63887;53.656;9.810;2023-04-25T02:06:27;5.30;;;5.20;;
4272;SDS011;63887;53.656;9.810;2023-04-25T02:08:54;4.80;;;4.80;;
4272;SDS011;63887;53.656;9.810;2023-04-25T02:11:20;5.13;;;5.03;;
4272;SDS011;63887;53.656;9.810;2023-04-25T02:13:48;4.47;;;4.40;;
4272;SDS011;63887;53.656;9.810;2023-04-25T02:16:14;4.60;;;4.50;;
4272;SDS011;63887;53.656;9.810;2023-04-25T02:18:40;4.03;;;4.03;;
4272;SDS011;63887;53.656;9.810;2023-04-25T02:21:07;4.70;;;4.70;;
4272;SDS011;63887;53.656;9.810;2023-04-25T02:23:33;5.27;;;5.27;;
4272;SDS011;63887;53.656;9.810;2023-04-25T02:26:00;4.73;;;4.73;;
4272;SDS011;63887;53.656;9.810;2023-04-25T02:28:27;4.50;;;4.50;;
4272;SDS011;63887;53.656;9.810;2023-04-25T02:30:55;4.80;;;4.80;;
4272;SDS011;63887;53.656;9.810;2023-04-25T02:33:21;4.90;;;4.90;;
4272;SDS011;63887;53.656;9.810;2023-04-25T02:35:47;6.40;;;5.40;;
4272;SDS011;63887;53.656;9.810;2023-04-25T02:38:14;4.97;;;4.97;;
4272;SDS011;63887;53.656;9.810;2023-04-25T02:40:41;3.87;;;3.87;;
4272;SDS011;63887;53.656;9.810;2023-04-25T02:43:07;4.63;;;4.63;;
4272;SDS011;63887;53.656;9.810;2023-04-25T02:45:33;4.83;;;4.73;;
4272;SDS011;63887;53.656;9.810;2023-04-25T02:48:02;4.40;;;4.40;;
4272;SDS011;63887;53.656;9.810;2023-04-25T02:50:28;6.47;;;6.13;;
4272;SDS011;63887;53.656;9.810;2023-04-25T02:52:55;4.87;;;4.87;;
4272;SDS011;63887;53.656;9.810;2023-04-25T02:55:21;5.10;;;5.10;;
4272;SDS011;63887;53.656;9.810;2023-04-25T02:57:48;4.03;;;4.03;;
4272;SDS011;63887;53.656;9.810;2023-04-25T03:00:15;5.80;;;5.33;;
4272;SDS011;63887;53.656;9.810;2023-04-25T03:02:41;5.20;;;5.10;;
4272;SDS011;63887;53.656;9.810;2023-04-25T03:05:09;4.67;;;4.57;;
4272;SDS011;63887;53.656;9.810;2023-04-25T03:07:36;4.80;;;4.70;;
4272;SDS011;63887;53.656;9.810;2023-04-25T03:10:04;5.03;;;5.00;;
4272;SDS011;63887;53.656;9.810;2023-04-25T03:12:31;4.70;;;4.60;;
4272;SDS011;63887;53.656;9.810;2023-04-25T03:14:58;3.97;;;3.97;;
4272;SDS011;63887;53.656;9.810;2023-04-25T03:17:24;4.47;;;4.47;;
4272;SDS011;63887;53.656;9.810;2023-04-25T03:19:51;5.10;;;5.10;;
4272;SDS011;63887;53.656;9.810;2023-04-25T03:22:19;4.60;;;4.60;;
4272;SDS011;63887;53.656;9.810;2023-04-25T03:24:45;4.80;;;4.80;;
4272;SDS011;63887;53.656;9.810;2023-04-25T03:27:12;4.70;;;4.70;;
4272;SDS011;63887;53.656;9.810;2023-04-25T03:29:38;5.43;;;5.33;;
4272;SDS011;63887;53.656;9.810;2023-04-25T03:32:05;4.57;;;4.57;;
4272;SDS011;63887;53.656;9.810;2023-04-25T03:34:31;4.97;;;4.97;;
4272;SDS011;63887;53.656;9.810;2023-04-25T03:36:58;12.30;;;4.83;;
4272;SDS011;63887;53.656;9.810;2023-04-25T03:39:26;5.30;;;5.20;;
4272;SDS011;63887;53.656;9.810;2023-04-25T03:41:53;5.07;;;5.07;;
4272;SDS011;63887;53.656;9.810;2023-04-25T03:44:19;4.68;;;4.68;;
4272;SDS011;63887;53.656;9.810;2023-04-25T03:46:46;5.67;;;5.57;;
4272;SDS011;63887;53.656;9.810;2023-04-25T03:49:12;5.40;;;5.40;;
4272;SDS011;63887;53.656;9.810;2023-04-25T03:51:39;5.50;;;5.40;;
4272;SDS011;63887;53.656;9.810;2023-04-25T03:54:05;5.90;;;5.67;;
4272;SDS011;63887;53.656;9.810;2023-04-25T03:56:33;5.47;;;5.20;;
4272;SDS011;63887;53.656;9.810;2023-04-25T03:59:00;4.97;;;4.97;;
4272;SDS011;63887;53.656;9.810;2023-04-25T04:01:26;4.80;;;4.80;;
4272;SDS011;63887;53.656;9.810;2023-04-25T04:03:52;5.40;;;5.30;;
4272;SDS011;63887;53.656;9.810;2023-04-25T04:06:19;5.20;;;5.20;;
4272;SDS011;63887;53.656;9.810;2023-04-25T04:08:46;5.83;;;5.30;;
4272;SDS011;63887;53.656;9.810;2023-04-25T04:11:12;5.80;;;5.70;;
4272;SDS011;63887;53.656;9.810;2023-04-25T04:13:40;5.47;;;5.47;;
4272;SDS011;63887;53.656;9.810;2023-04-25T04:16:06;5.53;;;5.53;;
4272;SDS011;63887;53.656;9.810;2023-04-25T04:18:33;5.30;;;5.30;;
4272;SDS011;63887;53.656;9.810;2023-04-25T04:20:59;5.57;;;5.57;;
4272;SDS011;63887;53.656;9.810;2023-04-25T04:23:26;4.67;;;4.67;;
4272;SDS011;63887;53.656;9.810;2023-04-25T04:25:53;5.30;;;5.30;;
4272;SDS011;63887;53.656;9.810;2023-04-25T04:28:20;4.87;;;4.87;;
4272;SDS011;63887;53.656;9.810;2023-04-25T04:30:48;5.27;;;5.27;;
4272;SDS011;63887;53.656;9.810;2023-04-25T04:33:16;6.13;;;6.10;;
4272;SDS011;63887;53.656;9.810;2023-04-25T04:35:44;6.43;;;6.33;;
4272;SDS011;63887;53.656;9.810;2023-04-25T04:38:11;5.00;;;5.00;;
4272;SDS011;63887;53.656;9.810;2023-04-25T04:40:40;5.80;;;5.70;;
4272;SDS011;63887;53.656;9.810;2023-04-25T04:43:06;5.83;;;5.73;;
4272;SDS011;63887;53.656;9.810;2023-04-25T04:45:33;5.57;;;5.50;;
4272;SDS011;63887;53.656;9.810;2023-04-25T04:48:01;5.93;;;5.83;;
4272;SDS011;63887;53.656;9.810;2023-04-25T04:50:28;5.40;;;5.40;;
4272;SDS011;63887;53.656;9.810;2023-04-25T04:52:54;6.23;;;6.13;;
4272;SDS011;63887;53.656;9.810;2023-04-25T04:55:21;6.17;;;5.63;;
4272;SDS011;63887;53.656;9.810;2023-04-25T04:57:47;5.20;;;5.20;;
4272;SDS011;63887;53.656;9.810;2023-04-25T05:00:14;5.53;;;5.43;;
4272;SDS011;63887;53.656;9.810;2023-04-25T05:02:41;4.77;;;4.77;;
4272;SDS011;63887;53.656;9.810;2023-04-25T05:05:09;5.60;;;5.60;;
4272;SDS011;63887;53.656;9.810;2023-04-25T05:07:35;5.30;;;5.30;;
4272;SDS011;63887;53.656;9.810;2023-04-25T05:10:02;4.90;;;4.90;;
4272;SDS011;63887;53.656;9.810;2023-04-25T05:12:29;4.77;;;4.67;;
4272;SDS011;63887;53.656;9.810;2023-04-25T05:14:56;5.20;;;5.10;;
4272;SDS011;63887;53.656;9.810;2023-04-25T05:17:22;4.93;;;4.93;;
4272;SDS011;63887;53.656;9.810;2023-04-25T05:19:49;5.13;;;5.13;;
4272;SDS011;63887;53.656;9.810;2023-04-25T05:22:16;5.00;;;5.00;;
4272;SDS011;63887;53.656;9.810;2023-04-25T05:24:43;5.70;;;5.60;;
4272;SDS011;63887;53.656;9.810;2023-04-25T05:27:09;4.67;;;4.67;;
4272;SDS011;63887;53.656;9.810;2023-04-25T05:29:36;6.10;;;6.00;;
4272;SDS011;63887;53.656;9.810;2023-04-25T05:32:02;5.87;;;5.80;;
4272;SDS011;63887;53.656;9.810;2023-04-25T05:34:29;5.10;;;5.10;;
4272;SDS011;63887;53.656;9.810;2023-04-25T05:36:55;4.83;;;4.80;;
4272;SDS011;63887;53.656;9.810;2023-04-25T05:39:23;5.37;;;5.27;;
4272;SDS011;63887;53.656;9.810;2023-04-25T05:41:49;5.37;;;5.27;;
4272;SDS011;63887;53.656;9.810;2023-04-25T05:44:16;4.47;;;4.47;;
4272;SDS011;63887;53.656;9.810;2023-04-25T05:46:42;5.90;;;5.80;;
4272;SDS011;63887;53.656;9.810;2023-04-25T05:49:09;5.00;;;4.90;;
4272;SDS011;63887;53.656;9.810;2023-04-25T05:51:40;5.20;;;5.20;;
4272;SDS011;63887;53.656;9.810;2023-04-25T05:54:06;5.80;;;5.80;;
4272;SDS011;63887;53.656;9.810;2023-04-25T05:56:34;5.80;;;5.80;;
4272;SDS011;63887;53.656;9.810;2023-04-25T05:59:00;5.77;;;5.77;;
4272;SDS011;63887;53.656;9.810;2023-04-25T06:01:27;6.17;;;6.07;;
4272;SDS011;63887;53.656;9.810;2023-04-25T06:03:53;6.60;;;6.40;;
4272;SDS011;63887;53.656;9.810;2023-04-25T06:06:20;6.07;;;6.00;;
4272;SDS011;63887;53.656;9.810;2023-04-25T06:08:46;5.73;;;5.73;;
4272;SDS011;63887;53.656;9.810;2023-04-25T06:11:12;5.60;;;5.60;;
4272;SDS011;63887;53.656;9.810;2023-04-25T06:13:40;5.40;;;5.40;;
4272;SDS011;63887;53.656;9.810;2023-04-25T06:16:06;5.80;;;5.80;;
4272;SDS011;63887;53.656;9.810;2023-04-25T06:18:33;5.73;;;5.73;;
4272;SDS011;63887;53.656;9.810;2023-04-25T06:20:59;5.87;;;5.80;;
4272;SDS011;63887;53.656;9.810;2023-04-25T06:23:26;6.20;;;6.13;;
4272;SDS011;63887;53.656;9.810;2023-04-25T06:25:52;7.00;;;6.67;;
4272;SDS011;63887;53.656;9.810;2023-04-25T06:28:19;6.30;;;6.23;;
4272;SDS011;63887;53.656;9.810;2023-04-25T06:30:48;5.90;;;5.70;;
4272;SDS011;63887;53.656;9.810;2023-04-25T06:33:15;6.90;;;6.50;;
4272;SDS011;63887;53.656;9.810;2023-04-25T06:35:41;7.27;;;6.70;;
4272;SDS011;63887;53.656;9.810;2023-04-25T06:38:08;5.70;;;5.60;;
4272;SDS011;63887;53.656;9.810;2023-04-25T06:40:34;5.73;;;5.73;;
4272;SDS011;63887;53.656;9.810;2023-04-25T06:43:01;6.53;;;6.43;;
4272;SDS011;63887;53.656;9.810;2023-04-25T06:45:27;5.90;;;5.80;;
4272;SDS011;63887;53.656;9.810;2023-04-25T06:47:55;4.93;;;4.93;;
4272;SDS011;63887;53.656;9.810;2023-04-25T06:50:21;5.60;;;5.60;;
4272;SDS011;63887;53.656;9.810;2023-04-25T06:52:47;5.30;;;5.30;;
4272;SDS011;63887;53.656;9.810;2023-04-25T06:55:14;5.93;;;5.83;;
4272;SDS011;63887;53.656;9.810;2023-04-25T06:57:40;5.70;;;5.70;;
4272;SDS011;63887;53.656;9.810;2023-04-25T07:00:07;5.83;;;5.83;;
4272;SDS011;63887;53.656;9.810;2023-04-25T07:02:34;5.63;;;5.53;;
4272;SDS011;63887;53.656;9.810;2023-04-25T07:05:03;5.47;;;5.37;;
4272;SDS011;63887;53.656;9.810;2023-04-25T07:07:30;5.23;;;5.23;;
4272;SDS011;63887;53.656;9.810;2023-04-25T07:09:56;5.73;;;5.73;;
4272;SDS011;63887;53.656;9.810;2023-04-25T07:12:23;6.00;;;5.90;;
4272;SDS011;63887;53.656;9.810;2023-04-25T07:14:49;4.53;;;4.53;;
4272;SDS011;63887;53.656;9.810;2023-04-25T07:17:16;4.67;;;4.67;;
4272;SDS011;63887;53.656;9.810;2023-04-25T07:19:42;5.20;;;5.10;;
4272;SDS011;63887;53.656;9.810;2023-04-25T07:22:10;5.60;;;5.60;;
4272;SDS011;63887;53.656;9.810;2023-04-25T07:24:36;5.70;;;5.70;;
4272;SDS011;63887;53.656;9.810;2023-04-25T07:27:03;6.10;;;5.77;;
4272;SDS011;63887;53.656;9.810;2023-04-25T07:29:29;5.37;;;5.37;;
4272;SDS011;63887;53.656;9.810;2023-04-25T07:31:56;5.47;;;5.37;;
4272;SDS011;63887;53.656;9.810;2023-04-25T07:34:23;5.50;;;5.50;;
4272;SDS011;63887;53.656;9.810;2023-04-25T07:36:49;5.27;;;5.27;;
4272;SDS011;63887;53.656;9.810;2023-04-25T07:39:17;5.53;;;5.53;;
4272;SDS011;63887;53.656;9.810;2023-04-25T07:41:43;5.40;;;5.40;;
4272;SDS011;63887;53.656;9.810;2023-04-25T07:44:10;6.13;;;6.03;;
4272;SDS011;63887;53.656;9.810;2023-04-25T07:46:36;6.20;;;6.17;;
4272;SDS011;63887;53.656;9.810;2023-04-25T07:49:03;5.50;;;5.50;;
4272;SDS011;63887;53.656;9.810;2023-04-25T07:51:29;5.90;;;5.90;;
4272;SDS011;63887;53.656;9.810;2023-04-25T07:53:56;5.70;;;5.70;;
4272;SDS011;63887;53.656;9.810;2023-04-25T07:56:24;5.73;;;5.73;;
4272;SDS011;63887;53.656;9.810;2023-04-25T07:58:50;6.70;;;6.40;;
4272;SDS011;63887;53.656;9.810;2023-04-25T08:01:17;5.53;;;5.53;;
4272;SDS011;63887;53.656;9.810;2023-04-25T08:03:45;6.37;;;6.00;;
4272;SDS011;63887;53.656;9.810;2023-04-25T08:06:11;6.00;;;5.80;;
4272;SDS011;63887;53.656;9.810;2023-04-25T08:08:37;5.63;;;5.57;;
4272;SDS011;63887;53.656;9.810;2023-04-25T08:11:04;5.30;;;5.30;;
4272;SDS011;63887;53.656;9.810;2023-04-25T08:13:32;5.10;;;5.10;;
4272;SDS011;63887;53.656;9.810;2023-04-25T08:15:59;5.73;;;5.43;;
4272;SDS011;63887;53.656;9.810;2023-04-25T08:18:25;4.90;;;4.90;;
4272;SDS011;63887;53.656;9.810;2023-04-25T08:20:51;5.70;;;5.70;;
4272;SDS011;63887;53.656;9.810;2023-04-25T08:23:18;5.33;;;5.33;;
4272;SDS011;63887;53.656;9.810;2023-04-25T08:25:44;4.90;;;4.90;;
4272;SDS011;63887;53.656;9.810;2023-04-25T08:28:11;5.73;;;5.73;;
4272;SDS011;63887;53.656;9.810;2023-04-25T08:30:39;5.07;;;5.07;;
4272;SDS011;63887;53.656;9.810;2023-04-25T08:33:06;5.27;;;5.27;;
4272;SDS011;63887;53.656;9.810;2023-04-25T08:35:33;5.10;;;5.10;;
4272;SDS011;63887;53.656;9.810;2023-04-25T08:37:59;4.73;;;4.73;;
4272;SDS011;63887;53.656;9.810;2023-04-25T08:40:27;4.83;;;4.83;;
4272;SDS011;63887;53.656;9.810;2023-04-25T08:42:55;5.20;;;5.20;;
4272;SDS011;63887;53.656;9.810;2023-04-25T08:45:24;5.33;;;5.23;;
4272;SDS011;63887;53.656;9.810;2023-04-25T08:47:53;5.20;;;5.20;;
4272;SDS011;63887;53.656;9.810;2023-04-25T08:50:22;5.90;;;5.80;;
4272;SDS011;63887;53.656;9.810;2023-04-25T08:52:51;5.70;;;5.70;;
4272;SDS011;63887;53.656;9.810;2023-04-25T08:55:20;5.50;;;5.50;;
4272;SDS011;63887;53.656;9.810;2023-04-25T08:57:47;5.73;;;5.40;;
4272;SDS011;63887;53.656;9.810;2023-04-25T09:00:14;6.00;;;5.80;;
4272;SDS011;63887;53.656;9.810;2023-04-25T09:02:41;5.33;;;5.23;;
4272;SDS011;63887;53.656;9.810;2023-04-25T09:05:10;5.77;;;5.77;;
4272;SDS011;63887;53.656;9.810;2023-04-25T09:07:38;6.90;;;6.70;;
4272;SDS011;63887;53.656;9.810;2023-04-25T09:10:05;5.90;;;5.90;;
4272;SDS011;63887;53.656;9.810;2023-04-25T09:12:32;5.43;;;5.43;;
4272;SDS011;63887;53.656;9.810;2023-04-25T09:15:05;5.83;;;5.83;;
4272;SDS011;63887;53.656;9.810;2023-04-25T09:17:33;5.93;;;5.93;;
4272;SDS011;63887;53.656;9.810;2023-04-25T09:20:06;6.00;;;6.00;;
4272;SDS011;63887;53.656;9.810;2023-04-25T09:22:35;6.40;;;6.30;;
4272;SDS011;63887;53.656;9.810;2023-04-25T09:25:03;5.80;;;5.80;;
4272;SDS011;63887;53.656;9.810;2023-04-25T09:27:34;5.47;;;5.47;;
4272;SDS011;63887;53.656;9.810;2023-04-25T09:30:00;5.60;;;5.60;;
4272;SDS011;63887;53.656;9.810;2023-04-25T09:32:27;5.57;;;5.57;;
4272;SDS011;63887;53.656;9.810;2023-04-25T09:34:54;5.03;;;5.03;;
4272;SDS011;63887;53.656;9.810;2023-04-25T09:37:22;6.33;;;5.93;;
4272;SDS011;63887;53.656;9.810;2023-04-25T09:39:52;5.10;;;5.10;;
4272;SDS011;63887;53.656;9.810;2023-04-25T09:42:21;5.70;;;5.70;;
4272;SDS011;63887;53.656;9.810;2023-04-25T09:44:49;5.70;;;5.60;;
4272;SDS011;63887;53.656;9.810;2023-04-25T09:47:18;5.00;;;5.00;;
4272;SDS011;63887;53.656;9.810;2023-04-25T09:49:46;6.40;;;6.30;;
4272;SDS011;63887;53.656;9.810;2023-04-25T09:52:13;5.73;;;5.73;;
4272;SDS011;63887;53.656;9.810;2023-04-25T09:54:41;5.73;;;5.73;;
4272;SDS011;63887;53.656;9.810;2023-04-25T09:57:11;5.90;;;5.90;;
4272;SDS011;63887;53.656;9.810;2023-04-25T09:59:39;5.80;;;5.80;;
4272;SDS011;63887;53.656;9.810;2023-04-25T10:02:10;5.33;;;5.33;;
4272;SDS011;63887;53.656;9.810;2023-04-25T10:04:38;5.60;;;5.60;;
4272;SDS011;63887;53.656;9.810;2023-04-25T10:07:05;5.77;;;5.77;;
4272;SDS011;63887;53.656;9.810;2023-04-25T10:09:33;5.93;;;5.93;;
4272;SDS011;63887;53.656;9.810;2023-04-25T10:12:02;6.27;;;6.27;;
4272;SDS011;63887;53.656;9.810;2023-04-25T10:14:32;5.93;;;5.93;;
4272;SDS011;63887;53.656;9.810;2023-04-25T10:16:59;6.40;;;6.40;;
4272;SDS011;63887;53.656;9.810;2023-04-25T10:19:26;6.20;;;6.10;;
4272;SDS011;63887;53.656;9.810;2023-04-25T10:21:54;6.10;;;6.10;;
4272;SDS011;63887;53.656;9.810;2023-04-25T10:24:24;6.30;;;6.30;;
4272;SDS011;63887;53.656;9.810;2023-04-25T10:26:51;5.93;;;5.73;;
4272;SDS011;63887;53.656;9.810;2023-04-25T10:29:21;6.57;;;6.13;;
4272;SDS011;63887;53.656;9.810;2023-04-25T10:31:50;6.40;;;6.30;;
4272;SDS011;63887;53.656;9.810;2023-04-25T10:34:17;5.57;;;5.57;;
4272;SDS011;63887;53.656;9.810;2023-04-25T10:36:48;5.90;;;5.90;;
4272;SDS011;63887;53.656;9.810;2023-04-25T10:39:21;5.50;;;5.50;;
4272;SDS011;63887;53.656;9.810;2023-04-25T10:41:52;5.33;;;5.33;;
4272;SDS011;63887;53.656;9.810;2023-04-25T10:44:20;7.13;;;6.83;;
4272;SDS011;63887;53.656;9.810;2023-04-25T10:46:46;5.83;;;5.77;;
4272;SDS011;63887;53.656;9.810;2023-04-25T10:52:16;6.30;;;6.30;;
4272;SDS011;63887;53.656;9.810;2023-04-25T10:54:47;6.20;;;6.20;;
4272;SDS011;63887;53.656;9.810;2023-04-25T10:57:27;6.40;;;6.40;;
4272;SDS011;63887;53.656;9.810;2023-04-25T11:00:14;6.37;;;6.30;;
4272;SDS011;63887;53.656;9.810;2023-04-25T11:02:43;6.00;;;6.00;;
4272;SDS011;63887;53.656;9.810;2023-04-25T11:05:15;6.50;;;6.50;;
4272;SDS011;63887;53.656;9.810;2023-04-25T11:07:49;6.43;;;6.43;;
4272;SDS011;63887;53.656;9.810;2023-04-25T11:10:17;5.93;;;5.93;;
4272;SDS011;63887;53.656;9.810;2023-04-25T11:12:44;5.80;;;5.80;;
4272;SDS011;63887;53.656;9.810;2023-04-25T11:15:11;6.40;;;6.40;;
4272;SDS011;63887;53.656;9.810;2023-04-25T11:17:38;6.20;;;6.20;;
4272;SDS011;63887;53.656;9.810;2023-04-25T11:20:06;6.37;;;6.27;;
4272;SDS011;63887;53.656;9.810;2023-04-25T11:22:36;5.30;;;5.30;;
4272;SDS011;63887;53.656;9.810;2023-04-25T11:25:09;6.27;;;6.20;;
4272;SDS011;63887;53.656;9.810;2023-04-25T11:27:37;5.97;;;5.97;;
4272;SDS011;63887;53.656;9.810;2023-04-25T11:30:11;6.13;;;6.13;;
4272;SDS011;63887;53.656;9.810;2023-04-25T11:32:40;5.87;;;5.87;;
4272;SDS011;63887;53.656;9.810;2023-04-25T11:35:07;6.03;;;6.03;;
4272;SDS011;63887;53.656;9.810;2023-04-25T11:37:34;6.00;;;5.60;;
4272;SDS011;63887;53.656;9.810;2023-04-25T11:40:00;5.87;;;5.87;;
4272;SDS011;63887;53.656;9.810;2023-04-25T11:42:28;8.00;;;7.43;;
4272;SDS011;63887;53.656;9.810;2023-04-25T11:44:54;5.90;;;5.90;;
4272;SDS011;63887;53.656;9.810;2023-04-25T11:47:26;5.90;;;5.90;;
4272;SDS011;63887;53.656;9.810;2023-04-25T11:49:54;5.57;;;5.57;;
4272;SDS011;63887;53.656;9.810;2023-04-25T11:52:21;5.20;;;5.20;;
4272;SDS011;63887;53.656;9.810;2023-04-25T11:54:47;6.17;;;6.17;;
4272;SDS011;63887;53.656;9.810;2023-04-25T11:57:13;6.00;;;6.00;;
4272;SDS011;63887;53.656;9.810;2023-04-25T11:59:41;5.60;;;5.60;;
4272;SDS011;63887;53.656;9.810;2023-04-25T12:02:08;5.73;;;5.73;;
4272;SDS011;63887;53.656;9.810;2023-04-25T12:04:34;5.93;;;5.80;;
4272;SDS011;63887;53.656;9.810;2023-04-25T12:07:01;5.47;;;5.37;;
4272;SDS011;63887;53.656;9.810;2023-04-25T12:09:28;5.63;;;5.63;;
4272;SDS011;63887;53.656;9.810;2023-04-25T12:11:56;5.80;;;5.80;;
4272;SDS011;63887;53.656;9.810;2023-04-25T12:14:24;5.50;;;5.50;;
4272;SDS011;63887;53.656;9.810;2023-04-25T12:16:54;5.53;;;5.53;;
4272;SDS011;63887;53.656;9.810;2023-04-25T12:19:22;5.40;;;5.40;;
4272;SDS011;63887;53.656;9.810;2023-04-25T12:21:49;5.70;;;5.70;;
4272;SDS011;63887;53.656;9.810;2023-04-25T12:24:17;5.10;;;5.10;;
4272;SDS011;63887;53.656;9.810;2023-04-25T12:26:48;5.30;;;5.30;;
4272;SDS011;63887;53.656;9.810;2023-04-25T12:29:17;4.70;;;4.70;;
4272;SDS011;63887;53.656;9.810;2023-04-25T12:31:45;5.50;;;5.50;;
4272;SDS011;63887;53.656;9.810;2023-04-25T12:34:13;5.27;;;5.27;;
4272;SDS011;63887;53.656;9.810;2023-04-25T12:36:39;5.70;;;5.70;;
4272;SDS011;63887;53.656;9.810;2023-04-25T12:39:06;4.93;;;4.93;;
4272;SDS011;63887;53.656;9.810;2023-04-25T12:41:33;4.80;;;4.80;;
4272;SDS011;63887;53.656;9.810;2023-04-25T12:44:00;5.20;;;5.20;;
4272;SDS011;63887;53.656;9.810;2023-04-25T12:46:26;5.30;;;5.10;;
4272;SDS011;63887;53.656;9.810;2023-04-25T12:48:52;5.13;;;5.13;;
4272;SDS011;63887;53.656;9.810;2023-04-25T12:51:21;5.07;;;5.07;;
4272;SDS011;63887;53.656;9.810;2023-04-25T12:53:49;5.50;;;5.50;;
4272;SDS011;63887;53.656;9.810;2023-04-25T12:56:16;4.77;;;4.77;;
4272;SDS011;63887;53.656;9.810;2023-04-25T12:58:43;5.70;;;5.70;;
4272;SDS011;63887;53.656;9.810;2023-04-25T13:01:09;4.97;;;4.97;;
4272;SDS011;63887;53.656;9.810;2023-04-25T13:03:37;4.97;;;4.97;;
4272;SDS011;63887;53.656;9.810;2023-04-25T13:06:03;4.77;;;4.77;;
4272;SDS011;63887;53.656;9.810;2023-04-25T13:08:31;4.60;;;4.60;;
4272;SDS011;63887;53.656;9.810;2023-04-25T13:10:58;4.57;;;4.57;;
4272;SDS011;63887;53.656;9.810;2023-04-25T13:13:25;5.13;;;5.10;;
4272;SDS011;63887;53.656;9.810;2023-04-25T13:15:52;4.50;;;4.50;;
4272;SDS011;63887;53.656;9.810;2023-04-25T13:18:18;5.30;;;5.20;;
4272;SDS011;63887;53.656;9.810;2023-04-25T13:20:45;5.20;;;5.00;;
4272;SDS011;63887;53.656;9.810;2023-04-25T13:23:12;5.00;;;5.00;;
4272;SDS011;63887;53.656;9.810;2023-04-25T13:25:40;4.73;;;4.73;;
4272;SDS011;63887;53.656;9.810;2023-04-25T13:28:06;4.77;;;4.77;;
4272;SDS011;63887;53.656;9.810;2023-04-25T13:30:33;4.63;;;4.63;;
4272;SDS011;63887;53.656;9.810;2023-04-25T13:32:59;4.87;;;4.77;;
4272;SDS011;63887;53.656;9.810;2023-04-25T13:35:28;4.73;;;4.73;;
4272;SDS011;63887;53.656;9.810;2023-04-25T13:37:55;4.53;;;4.53;;
4272;SDS011;63887;53.656;9.810;2023-04-25T13:40:21;4.13;;;4.13;;
4272;SDS011;63887;53.656;9.810;2023-04-25T13:42:49;5.20;;;5.20;;
4272;SDS011;63887;53.656;9.810;2023-04-25T13:45:16;5.10;;;5.10;;
4272;SDS011;63887;53.656;9.810;2023-04-25T13:47:42;5.03;;;5.03;;
4272;SDS011;63887;53.656;9.810;2023-04-25T13:50:09;5.07;;;5.07;;
4272;SDS011;63887;53.656;9.810;2023-04-25T13:52:36;12.03;;;5.40;;
4272;SDS011;63887;53.656;9.810;2023-04-25T13:55:02;5.07;;;4.97;;
4272;SDS011;63887;53.656;9.810;2023-04-25T13:57:31;4.57;;;4.57;;
4272;SDS011;63887;53.656;9.810;2023-04-25T14:00:00;5.10;;;5.00;;
4272;SDS011;63887;53.656;9.810;2023-04-25T14:02:29;4.97;;;4.90;;
4272;SDS011;63887;53.656;9.810;2023-04-25T14:04:56;5.30;;;5.30;;
4272;SDS011;63887;53.656;9.810;2023-04-25T14:07:22;5.30;;;5.30;;
4272;SDS011;63887;53.656;9.810;2023-04-25T14:09:49;4.77;;;4.77;;
4272;SDS011;63887;53.656;9.810;2023-04-25T14:12:15;5.30;;;5.30;;
4272;SDS011;63887;53.656;9.810;2023-04-25T14:14:42;4.40;;;4.40;;
4272;SDS011;63887;53.656;9.810;2023-04-25T14:17:10;4.73;;;4.73;;
4272;SDS011;63887;53.656;9.810;2023-04-25T14:19:36;4.93;;;4.93;;
4272;SDS011;63887;53.656;9.810;2023-04-25T14:22:08;5.23;;;5.20;;
4272;SDS011;63887;53.656;9.810;2023-04-25T14:24:34;4.60;;;4.60;;
4272;SDS011;63887;53.656;9.810;2023-04-25T14:27:01;4.93;;;4.93;;
4272;SDS011;63887;53.656;9.810;2023-04-25T14:29:27;5.07;;;5.07;;
4272;SDS011;63887;53.656;9.810;2023-04-25T14:31:54;5.10;;;5.10;;
4272;SDS011;63887;53.656;9.810;2023-04-25T14:34:23;4.70;;;4.70;;
4272;SDS011;63887;53.656;9.810;2023-04-25T14:36:51;5.00;;;5.00;;
4272;SDS011;63887;53.656;9.810;2023-04-25T14:39:17;4.60;;;4.60;;
4272;SDS011;63887;53.656;9.810;2023-04-25T14:41:44;4.90;;;4.87;;
4272;SDS011;63887;53.656;9.810;2023-04-25T14:44:10;5.30;;;5.20;;
4272;SDS011;63887;53.656;9.810;2023-04-25T14:46:37;4.67;;;4.67;;
4272;SDS011;63887;53.656;9.810;2023-04-25T14:49:04;4.70;;;4.70;;
4272;SDS011;63887;53.656;9.810;2023-04-25T14:51:32;4.40;;;4.40;;
4272;SDS011;63887;53.656;9.810;2023-04-25T14:53:59;4.73;;;4.73;;
4272;SDS011;63887;53.656;9.810;2023-04-25T14:56:26;4.67;;;4.67;;
4272;SDS011;63887;53.656;9.810;2023-04-25T14:58:52;4.60;;;4.60;;
4272;SDS011;63887;53.656;9.810;2023-04-25T15:01:18;4.10;;;4.10;;
4272;SDS011;63887;53.656;9.810;2023-04-25T15:03:46;4.67;;;4.67;;